Fenton, Louisiana
Current Conditions -  °F | °C
As of 2:15 PM on Thursday 18 Dec 2014 (Local Time) from K3R7 Reporting Station
Overcast Overcast  
Wind Chill: 62°   Ceiling: 1500
Heat Index: 62°   Visibility: 10mi
Dew Point: 54°   Wind: 9mph
Humidity: 75%   Direction: 50°NE
Pressure: 30.06"   Gusts: NA
Location:  30.37°N, 92.92°W
Report Text: K3R7 182015Z AUTO 05008KT 10SM OVC015 17/12 A3006 RMK AO2 T01670122
Loading
Personal Weather Stations






























Interactive Weather Map New forecast layout! Learn more

10-Day Weather Forecast

Advertisements
Track Severe Weather on mobile